Time;durP1;ratioP1;P1;durP2;ratioP2;P2;SDS_P1;SDS_P2;PMS_P1;PMS_P2;Temp;Humidity;BMP_temperature;BMP_pressure;BME280_temperature;BME280_humidity;BME280_pressure;Samples;Min_cycle;Max_cycle;Signal;HPM_P1;HPM_P2
2021/01/31 00:01:33;;;;;;;27.17;13.73;;;3.00;93.90;;;;;;5084067;28;20182;-72
2021/01/31 00:03:59;;;;;;;26.20;13.93;;;3.00;93.80;;;;;;5072476;28;20182;-72
2021/01/31 00:06:25;;;;;;;37.83;14.63;;;3.00;93.80;;;;;;5072997;28;20999;-72
2021/01/31 00:08:50;;;;;;;25.00;14.00;;;3.00;93.90;;;;;;5068486;28;20189;-72
2021/01/31 00:11:17;;;;;;;25.90;12.90;;;3.00;93.90;;;;;;5080543;28;20338;-72
2021/01/31 00:13:44;;;;;;;27.97;13.50;;;3.00;93.80;;;;;;5079725;28;20178;-72
2021/01/31 00:16:10;;;;;;;26.93;14.80;;;3.00;93.60;;;;;;5087955;28;20177;-73
2021/01/31 00:18:36;;;;;;;30.70;16.80;;;3.00;93.90;;;;;;5087979;28;20174;-72
2021/01/31 00:21:03;;;;;;;36.30;17.03;;;3.00;94.00;;;;;;5084946;28;20179;-72
2021/01/31 00:23:28;;;;;;;33.10;15.73;;;3.00;93.80;;;;;;5071329;28;20179;-72
2021/01/31 00:25:54;;;;;;;28.33;14.47;;;3.00;94.00;;;;;;5074164;28;20193;-72
2021/01/31 00:28:22;;;;;;;34.70;15.80;;;3.00;94.10;;;;;;5073382;28;20256;-72
2021/01/31 00:30:49;;;;;;;29.00;12.80;;;3.00;94.00;;;;;;5087018;28;22550;-72
2021/01/31 00:33:26;;;;;;;28.07;14.97;;;2.90;94.20;;;;;;5076872;28;20248;-72
2021/01/31 00:35:53;;;;;;;25.83;13.67;;;2.90;94.20;;;;;;5069614;28;20307;-72
2021/01/31 00:38:21;;;;;;;28.10;13.67;;;2.90;94.10;;;;;;5067461;28;20183;-72
2021/01/31 00:40:47;;;;;;;24.10;13.43;;;3.00;93.90;;;;;;5086578;28;20706;-72
2021/01/31 00:43:14;;;;;;;26.33;13.10;;;2.90;94.40;;;;;;5088773;28;20170;-72
2021/01/31 00:45:40;;;;;;;25.73;13.77;;;2.90;94.50;;;;;;5069318;28;20190;-72
2021/01/31 00:48:06;;;;;;;30.80;12.43;;;2.90;94.50;;;;;;5078137;28;20282;-72
2021/01/31 00:50:36;;;;;;;27.87;12.40;;;2.90;94.50;;;;;;5086899;28;20257;-72
2021/01/31 00:53:03;;;;;;;26.77;14.10;;;2.90;94.50;;;;;;5088353;28;20186;-72
2021/01/31 00:55:28;;;;;;;25.97;14.13;;;2.90;94.60;;;;;;5083990;28;20183;-72
2021/01/31 00:57:54;;;;;;;29.37;14.57;;;2.90;94.90;;;;;;5068756;28;20236;-72
2021/01/31 01:00:24;;;;;;;26.37;13.57;;;2.90;94.70;;;;;;5070455;28;20180;-72
2021/01/31 01:02:50;;;;;;;27.70;13.93;;;2.90;94.70;;;;;;5076226;28;20187;-72
2021/01/31 01:05:20;;;;;;;23.40;12.53;;;3.00;94.60;;;;;;5068894;28;20202;-72
2021/01/31 01:07:46;;;;;;;26.17;13.63;;;3.00;94.40;;;;;;5085869;28;20243;-72
2021/01/31 01:10:15;;;;;;;20.53;12.37;;;3.00;94.40;;;;;;5071209;28;20178;-72
2021/01/31 01:12:40;;;;;;;24.50;12.57;;;2.90;94.60;;;;;;5067657;28;20256;-72
2021/01/31 01:15:09;;;;;;;25.43;13.90;;;2.90;94.50;;;;;;5084279;28;20655;-72
2021/01/31 01:17:34;;;;;;;22.70;11.73;;;2.90;94.70;;;;;;5070186;28;20636;-72
2021/01/31 01:20:01;;;;;;;24.50;13.10;;;2.90;94.50;;;;;;5068616;28;20190;-72
2021/01/31 01:22:26;;;;;;;27.67;12.27;;;3.00;94.70;;;;;;5066062;28;20221;-72
2021/01/31 01:24:52;;;;;;;23.70;12.20;;;2.90;94.60;;;;;;5068647;28;20183;-73
2021/01/31 01:27:22;;;;;;;17.63;11.47;;;2.90;94.70;;;;;;5074803;28;20194;-73
2021/01/31 01:29:49;;;;;;;26.47;13.77;;;2.90;94.50;;;;;;5067920;28;20190;-73
2021/01/31 01:32:15;;;;;;;22.37;11.83;;;2.90;94.70;;;;;;5085275;28;20206;-73
2021/01/31 01:34:44;;;;;;;23.23;11.90;;;3.00;94.60;;;;;;5086196;28;20179;-73
2021/01/31 01:37:10;;;;;;;21.67;11.70;;;3.00;94.60;;;;;;5074569;28;20870;-73
2021/01/31 01:39:36;;;;;;;18.00;11.30;;;3.00;94.40;;;;;;5068126;28;20182;-73
2021/01/31 01:42:06;;;;;;;22.27;10.93;;;3.00;94.60;;;;;;5066779;28;20263;-73
2021/01/31 01:44:31;;;;;;;22.87;11.83;;;3.00;94.60;;;;;;5079600;28;20193;-73
2021/01/31 01:46:59;;;;;;;23.73;11.13;;;3.10;94.40;;;;;;5076545;28;20187;-73
2021/01/31 01:49:41;;;;;;;23.80;10.30;;;3.10;94.60;;;;;;5076497;28;20978;-73
2021/01/31 01:52:12;;;;;;;21.50;12.00;;;3.10;94.40;;;;;;5070472;28;20202;-73
2021/01/31 01:54:42;;;;;;;18.87;9.67;;;3.00;94.40;;;;;;5085603;28;20178;-73
2021/01/31 01:57:15;;;;;;;18.87;10.83;;;3.00;94.60;;;;;;5072288;28;20171;-73
2021/01/31 01:59:43;;;;;;;24.03;12.10;;;3.00;94.70;;;;;;5074325;28;20712;-73
2021/01/31 02:02:26;;;;;;;30.43;11.83;;;3.00;94.70;;;;;;5068343;28;20187;-73
2021/01/31 02:04:53;;;;;;;22.60;11.70;;;3.00;94.80;;;;;;5065366;28;20626;-73
2021/01/31 02:07:19;;;;;;;20.23;11.33;;;3.00;94.80;;;;;;5077767;28;20193;-73
2021/01/31 02:09:47;;;;;;;25.70;13.50;;;3.10;94.70;;;;;;5073840;28;20261;-73
2021/01/31 02:12:15;;;;;;;20.73;12.67;;;3.10;94.70;;;;;;5066140;28;20209;-73
2021/01/31 02:14:44;;;;;;;23.77;12.00;;;3.10;94.70;;;;;;5066189;28;20182;-73
2021/01/31 02:17:39;;;;;;;22.77;11.73;;;3.10;94.60;;;;;;5074234;28;20183;-73
2021/01/31 02:20:54;;;;;;;27.13;12.00;;;3.10;94.60;;;;;;5003685;28;20189;-73
2021/01/31 02:23:51;;;;;;;21.60;12.17;;;3.10;94.30;;;;;;4987742;28;20166;-73
2021/01/31 02:26:31;;;;;;;19.40;11.83;;;3.10;94.20;;;;;;4987340;28;20205;-73
2021/01/31 02:29:38;;;;;;;24.00;12.97;;;3.10;94.30;;;;;;5004064;28;20176;-73
2021/01/31 02:32:44;;;;;;;23.33;11.93;;;3.00;94.70;;;;;;5002810;28;20226;-73
2021/01/31 02:35:19;;;;;;;24.77;12.10;;;3.00;94.90;;;;;;5003710;28;20231;-72
2021/01/31 02:37:58;;;;;;;22.37;11.13;;;2.90;94.70;;;;;;5003415;28;20201;-73
2021/01/31 02:40:29;;;;;;;23.63;11.43;;;2.80;94.60;;;;;;5003716;28;20680;-72
2021/01/31 02:43:11;;;;;;;20.70;11.90;;;2.80;94.70;;;;;;5003381;28;20204;-72
2021/01/31 02:45:46;;;;;;;21.27;11.90;;;2.80;94.30;;;;;;5003600;28;20177;-72
2021/01/31 02:48:23;;;;;;;20.50;11.07;;;2.70;94.20;;;;;;4986363;28;20268;-72
2021/01/31 02:50:53;;;;;;;22.77;11.47;;;2.70;94.40;;;;;;4984976;28;20204;-72
2021/01/31 02:53:34;;;;;;;27.37;12.03;;;2.60;94.60;;;;;;5001819;28;20387;-72
2021/01/31 02:56:07;;;;;;;21.10;11.30;;;2.60;95.40;;;;;;5005308;28;20646;-72
2021/01/31 02:58:44;;;;;;;21.20;11.27;;;2.50;95.30;;;;;;5045399;28;20166;-72
2021/01/31 03:01:19;;;;;;;20.97;10.27;;;2.50;95.10;;;;;;5057706;28;20643;-72
2021/01/31 03:04:04;;;;;;;20.63;9.57;;;2.50;95.30;;;;;;5047000;28;20168;-72
2021/01/31 03:06:34;;;;;;;20.23;11.03;;;2.50;95.40;;;;;;5067481;28;20306;-72
2021/01/31 03:09:09;;;;;;;21.03;10.70;;;2.40;96.70;;;;;;5064533;28;20183;-72
2021/01/31 03:11:44;;;;;;;13.77;8.33;;;2.30;96.50;;;;;;5065856;28;20194;-72
2021/01/31 03:14:20;;;;;;;14.27;7.73;;;2.20;96.90;;;;;;5074622;28;20166;-72
2021/01/31 03:16:56;;;;;;;13.50;7.87;;;2.30;97.40;;;;;;5085625;28;20182;-72
2021/01/31 03:19:27;;;;;;;18.83;9.63;;;2.20;97.20;;;;;;5076450;28;20170;-72
2021/01/31 03:21:57;;;;;;;11.43;6.37;;;2.20;97.90;;;;;;5063789;28;20183;-72
2021/01/31 03:24:29;;;;;;;10.60;7.50;;;2.30;97.60;;;;;;5072074;28;20564;-72
2021/01/31 03:27:02;;;;;;;11.63;7.30;;;2.30;98.00;;;;;;5065248;28;20244;-72
2021/01/31 03:29:28;;;;;;;11.37;7.37;;;2.30;98.20;;;;;;5066451;28;20257;-72
2021/01/31 03:32:06;;;;;;;7.73;6.57;;;2.40;97.90;;;;;;5065446;28;20202;-72
2021/01/31 03:34:45;;;;;;;14.37;7.00;;;2.40;97.70;;;;;;5080690;28;20200;-72
2021/01/31 03:37:13;;;;;;;14.67;7.13;;;2.50;97.40;;;;;;5045649;28;20222;-72
2021/01/31 03:39:44;;;;;;;12.20;6.70;;;2.50;97.30;;;;;;5071994;28;20676;-72
2021/01/31 03:42:10;;;;;;;13.50;6.93;;;2.50;97.10;;;;;;5085431;28;20607;-72
2021/01/31 03:44:42;;;;;;;11.77;6.70;;;2.60;97.00;;;;;;5079531;28;20186;-72
2021/01/31 03:47:15;;;;;;;12.40;7.40;;;2.70;96.80;;;;;;5080489;28;20236;-72
2021/01/31 03:49:50;;;;;;;15.33;8.20;;;2.60;96.50;;;;;;5077456;28;20178;-72
2021/01/31 03:52:16;;;;;;;11.27;7.67;;;2.70;96.60;;;;;;5085057;28;20220;-72
2021/01/31 03:54:42;;;;;;;17.87;8.40;;;2.70;96.30;;;;;;5073007;28;20189;-72
2021/01/31 03:57:14;;;;;;;12.63;7.43;;;2.70;96.10;;;;;;5068528;28;20260;-72
2021/01/31 03:59:50;;;;;;;10.70;7.53;;;2.70;95.90;;;;;;5072006;28;20183;-72
2021/01/31 04:02:22;;;;;;;14.57;8.20;;;2.70;95.50;;;;;;5057454;28;20170;-72
2021/01/31 04:04:49;;;;;;;10.20;7.43;;;2.50;95.60;;;;;;5081301;28;20232;-72
2021/01/31 04:07:31;;;;;;;14.87;8.40;;;2.50;95.80;;;;;;5069217;28;20179;-72
2021/01/31 04:10:01;;;;;;;10.00;6.90;;;2.50;96.00;;;;;;5083316;28;20253;-72
2021/01/31 04:12:31;;;;;;;15.67;8.20;;;2.40;96.00;;;;;;5083044;28;20287;-72
2021/01/31 04:15:08;;;;;;;10.33;6.63;;;2.40;96.20;;;;;;5084004;28;20255;-72
2021/01/31 04:17:34;;;;;;;15.23;7.70;;;2.40;95.90;;;;;;5069769;28;20186;-72
2021/01/31 04:20:00;;;;;;;15.23;7.70;;;2.40;96.20;;;;;;5070590;28;20175;-73
2021/01/31 04:22:26;;;;;;;10.47;6.60;;;2.30;96.40;;;;;;5065233;28;20269;-73
2021/01/31 04:24:51;;;;;;;12.73;7.47;;;2.30;96.90;;;;;;5064488;28;20252;-72
2021/01/31 04:27:17;;;;;;;12.27;6.90;;;2.30;96.60;;;;;;5075544;28;20197;-72
2021/01/31 04:29:43;;;;;;;8.17;6.63;;;2.30;96.80;;;;;;5070646;28;20230;-73
2021/01/31 04:32:08;;;;;;;9.80;6.33;;;2.30;97.20;;;;;;5080904;28;20209;-73
2021/01/31 04:34:34;;;;;;;12.37;6.83;;;2.30;96.90;;;;;;5068402;28;20179;-73
2021/01/31 04:37:00;;;;;;;12.90;6.73;;;2.30;96.70;;;;;;5065106;28;20175;-73
2021/01/31 04:39:26;;;;;;;9.60;6.23;;;2.30;96.50;;;;;;5067470;28;20541;-72
2021/01/31 04:41:52;;;;;;;8.47;6.80;;;2.30;96.80;;;;;;5081594;28;20290;-73
2021/01/31 04:44:20;;;;;;;12.20;6.40;;;2.20;96.40;;;;;;5088433;28;20703;-72
2021/01/31 04:46:58;;;;;;;8.27;6.37;;;2.20;96.30;;;;;;5076322;28;20194;-73
2021/01/31 04:49:35;;;;;;;11.43;6.27;;;2.20;96.70;;;;;;5080175;28;20186;-72
2021/01/31 04:52:13;;;;;;;6.67;4.30;;;2.20;96.50;;;;;;5068384;28;20210;-72
2021/01/31 04:55:03;;;;;;;9.00;6.63;;;2.10;96.50;;;;;;5067686;28;20179;-73
2021/01/31 04:57:39;;;;;;;12.77;5.40;;;2.10;97.00;;;;;;5066007;28;20176;-72
2021/01/31 05:00:12;;;;;;;8.03;5.10;;;2.10;97.40;;;;;;5077773;28;20666;-72
2021/01/31 05:02:46;;;;;;;6.53;3.90;;;2.10;97.40;;;;;;5084107;28;20261;-73
2021/01/31 05:05:20;;;;;;;9.03;5.50;;;2.10;97.20;;;;;;5086109;28;20542;-72
2021/01/31 05:07:53;;;;;;;7.80;4.90;;;2.10;97.10;;;;;;5067380;28;20175;-72
2021/01/31 05:10:19;;;;;;;9.93;5.83;;;2.10;97.00;;;;;;5073611;28;20166;-72
2021/01/31 05:12:57;;;;;;;5.10;3.80;;;2.10;97.10;;;;;;5066284;28;20202;-72
2021/01/31 05:15:27;;;;;;;6.73;5.13;;;2.10;97.30;;;;;;5081336;28;20181;-73
2021/01/31 05:17:55;;;;;;;10.10;5.27;;;2.10;96.90;;;;;;5077962;28;20167;-72
2021/01/31 05:20:26;;;;;;;6.10;4.90;;;2.10;96.60;;;;;;5079620;28;20180;-72
2021/01/31 05:22:55;;;;;;;5.23;4.83;;;2.10;96.60;;;;;;5087570;28;20209;-72
2021/01/31 05:25:28;;;;;;;6.87;5.03;;;2.00;96.40;;;;;;5084601;28;20182;-72
2021/01/31 05:27:56;;;;;;;7.63;5.57;;;2.00;96.30;;;;;;5087858;28;20189;-72
2021/01/31 05:30:22;;;;;;;8.63;5.47;;;2.00;96.30;;;;;;5069127;28;20262;-72
2021/01/31 05:33:03;;;;;;;5.87;4.60;;;2.00;96.10;;;;;;5086172;28;20671;-73
2021/01/31 05:35:31;;;;;;;5.10;4.60;;;2.00;96.10;;;;;;5084376;28;20193;-72
2021/01/31 05:37:57;;;;;;;7.53;4.93;;;2.00;96.40;;;;;;5084878;28;20261;-72
2021/01/31 05:40:38;;;;;;;6.83;5.43;;;2.00;96.50;;;;;;5085062;28;20179;-72
2021/01/31 05:43:06;;;;;;;9.60;5.17;;;2.00;96.60;;;;;;5068296;28;20179;-72
2021/01/31 05:45:42;;;;;;;11.47;5.47;;;2.10;96.70;;;;;;5075371;28;20190;-72
2021/01/31 05:48:17;;;;;;;8.73;6.90;;;2.10;96.70;;;;;;5079234;28;20174;-72
2021/01/31 05:50:43;;;;;;;7.87;5.33;;;2.10;97.00;;;;;;5065861;28;20245;-72
2021/01/31 05:53:29;;;;;;;7.87;6.73;;;2.10;97.00;;;;;;5067136;28;20655;-72
2021/01/31 05:56:23;;;;;;;12.03;6.90;;;2.10;96.80;;;;;;5070003;28;20207;-71
2021/01/31 05:58:52;;;;;;;12.77;5.87;;;2.10;96.90;;;;;;5075675;28;20178;-71
2021/01/31 06:01:18;;;;;;;10.63;6.23;;;2.10;97.00;;;;;;5065623;28;20579;-71
2021/01/31 06:03:44;;;;;;;6.83;5.33;;;2.10;96.70;;;;;;5065424;28;20183;-71
2021/01/31 06:06:20;;;;;;;10.33;6.60;;;2.10;96.60;;;;;;5070554;28;20612;-73
2021/01/31 06:08:49;;;;;;;13.17;7.70;;;2.20;96.50;;;;;;5066793;28;20171;-73
2021/01/31 06:11:23;;;;;;;9.73;6.83;;;2.20;96.50;;;;;;5080121;28;20210;-72
2021/01/31 06:14:01;;;;;;;10.87;7.87;;;2.20;96.70;;;;;;5085087;28;20175;-72
2021/01/31 06:16:28;;;;;;;11.47;8.87;;;2.20;96.60;;;;;;5086190;28;20643;-72
2021/01/31 06:19:13;;;;;;;16.50;8.73;;;2.20;96.60;;;;;;5076710;28;20205;-72
2021/01/31 06:21:44;;;;;;;13.97;8.57;;;2.20;96.70;;;;;;5078093;28;20622;-74
2021/01/31 06:24:38;;;;;;;21.77;11.43;;;2.30;96.70;;;;;;5083295;28;20210;-72
2021/01/31 06:27:05;;;;;;;21.07;12.80;;;2.30;96.80;;;;;;5067508;28;20178;-71
2021/01/31 06:29:58;;;;;;;25.27;12.83;;;2.40;97.00;;;;;;5082294;28;20208;-72
2021/01/31 06:32:29;;;;;;;22.47;13.23;;;2.40;96.80;;;;;;5068421;28;20202;-70
2021/01/31 06:34:58;;;;;;;24.17;12.93;;;2.40;96.90;;;;;;5066172;28;20167;-74
2021/01/31 06:37:40;;;;;;;23.37;12.20;;;2.50;97.00;;;;;;5063631;28;20244;-72
2021/01/31 06:40:28;;;;;;;20.43;11.03;;;2.50;96.90;;;;;;5066997;28;20255;-72
2021/01/31 06:43:30;;;;;;;22.07;11.17;;;2.60;96.80;;;;;;5079897;28;20202;-74
2021/01/31 06:46:08;;;;;;;20.97;11.70;;;2.70;96.90;;;;;;5083980;28;20192;-73
2021/01/31 06:48:46;;;;;;;21.30;12.30;;;2.80;96.90;;;;;;5072795;28;20175;-71
2021/01/31 06:51:43;;;;;;;16.53;10.90;;;2.80;96.90;;;;;;5068914;28;20284;-72
2021/01/31 06:54:28;;;;;;;24.50;12.60;;;2.90;96.50;;;;;;5003497;28;20258;-71
2021/01/31 06:57:03;;;;;;;25.53;13.50;;;3.00;96.40;;;;;;4991426;28;20203;-72
2021/01/31 06:59:49;;;;;;;40.80;18.67;;;3.10;96.10;;;;;;5003092;28;20251;-73
2021/01/31 07:02:54;;;;;;;35.27;18.77;;;3.30;95.40;;;;;;5007423;28;20181;-72
2021/01/31 07:05:38;;;;;;;37.50;19.17;;;3.40;95.10;;;;;;4919843;29;20204;-72
2021/01/31 07:08:07;;;;;;;38.60;19.20;;;3.50;95.10;;;;;;4914448;29;20389;-72
2021/01/31 07:10:38;;;;;;;34.27;19.77;;;3.60;94.60;;;;;;4915893;29;20195;-72
2021/01/31 07:13:22;;;;;;;40.80;20.40;;;3.70;94.80;;;;;;4925644;29;20716;-73
2021/01/31 07:16:01;;;;;;;42.17;20.67;;;3.90;94.40;;;;;;4925374;29;20286;-72
2021/01/31 07:18:30;;;;;;;39.50;20.27;;;4.10;93.50;;;;;;4921668;29;20207;-72
2021/01/31 07:20:59;;;;;;;38.47;20.43;;;4.10;93.20;;;;;;4910440;29;20207;-72
2021/01/31 07:23:33;;;;;;;37.47;19.23;;;4.20;92.80;;;;;;4913434;29;20327;-73
2021/01/31 07:26:29;;;;;;;42.17;21.23;;;4.10;92.40;;;;;;4889217;29;20890;-72
2021/01/31 07:28:58;;;;;;;39.20;20.90;;;4.10;92.40;;;;;;4890438;29;20271;-73
2021/01/31 07:31:50;;;;;;;37.47;19.90;;;4.10;92.40;;;;;;4941891;28;20301;-73
2021/01/31 07:34:39;;;;;;;36.13;19.80;;;4.10;92.50;;;;;;4970767;28;20193;-74
2021/01/31 07:37:13;;;;;;;31.93;17.03;;;4.20;92.60;;;;;;4978461;28;20622;-73
2021/01/31 07:39:46;;;;;;;32.20;17.80;;;4.20;92.70;;;;;;4986125;28;20604;-73
2021/01/31 07:42:14;;;;;;;39.03;19.87;;;4.30;92.90;;;;;;5045804;28;20221;-73
2021/01/31 07:44:41;;;;;;;32.60;17.93;;;4.50;92.80;;;;;;5070862;28;20629;-73
2021/01/31 07:47:07;;;;;;;34.93;18.00;;;4.40;92.00;;;;;;5079334;28;20189;-73
2021/01/31 07:49:55;;;;;;;31.07;17.20;;;4.50;91.70;;;;;;5065823;28;20210;-73
2021/01/31 07:52:28;;;;;;;29.70;16.70;;;4.60;91.80;;;;;;5058629;28;20198;-73
2021/01/31 07:55:15;;;;;;;31.93;17.77;;;4.60;91.40;;;;;;5063294;28;20625;-73
2021/01/31 07:57:41;;;;;;;34.93;17.43;;;4.60;90.90;;;;;;5065931;28;20175;-73
2021/01/31 08:00:12;;;;;;;38.47;17.80;;;4.60;90.90;;;;;;5064880;28;20352;-73
2021/01/31 08:02:42;;;;;;;31.03;18.07;;;4.70;91.10;;;;;;5082017;28;20193;-73
2021/01/31 08:05:15;;;;;;;35.60;19.33;;;4.80;91.10;;;;;;5083529;28;20193;-73
2021/01/31 08:07:59;;;;;;;29.83;18.00;;;4.80;90.80;;;;;;5079642;28;20655;-73
2021/01/31 08:10:51;;;;;;;33.53;17.80;;;4.90;90.70;;;;;;5066345;28;20183;-73
2021/01/31 08:13:41;;;;;;;37.77;18.37;;;5.10;90.40;;;;;;5056788;28;20413;-73
2021/01/31 08:16:38;;;;;;;30.83;17.93;;;5.20;90.50;;;;;;5067312;28;20269;-72
2021/01/31 08:19:29;;;;;;;25.33;14.93;;;5.50;90.20;;;;;;5048832;28;20176;-73
2021/01/31 08:22:12;;;;;;;26.53;16.60;;;5.70;89.20;;;;;;5067204;28;20189;-73
2021/01/31 08:25:00;;;;;;;24.37;15.43;;;5.80;89.10;;;;;;5067617;28;20174;-73
2021/01/31 08:27:38;;;;;;;27.03;14.33;;;6.10;88.60;;;;;;5080229;28;20186;-73
2021/01/31 08:30:16;;;;;;;22.93;15.30;;;6.40;87.70;;;;;;5058605;28;20264;-71
2021/01/31 08:33:03;;;;;;;26.27;13.63;;;6.60;87.10;;;;;;5069348;28;20194;-72
2021/01/31 08:35:34;;;;;;;26.23;14.87;;;6.70;86.60;;;;;;5074412;28;20213;-71
2021/01/31 08:38:24;;;;;;;24.53;14.50;;;7.00;87.20;;;;;;5066757;28;20186;-71
2021/01/31 08:40:59;;;;;;;18.93;12.30;;;7.30;86.10;;;;;;5067489;28;20183;-71
2021/01/31 08:43:47;;;;;;;22.20;13.10;;;7.40;84.00;;;;;;5067453;28;20171;-70
2021/01/31 08:46:13;;;;;;;26.67;13.97;;;7.80;84.70;;;;;;5066185;28;20622;-71
2021/01/31 08:48:39;;;;;;;21.70;14.23;;;8.20;85.20;;;;;;5068919;28;20183;-71
2021/01/31 08:51:05;;;;;;;24.63;15.37;;;8.60;83.30;;;;;;5067690;28;20224;-70
2021/01/31 08:53:33;;;;;;;26.50;15.73;;;9.10;84.10;;;;;;5065670;28;20615;-71
2021/01/31 08:56:19;;;;;;;26.53;14.53;;;9.60;82.00;;;;;;5068133;28;20232;-71
2021/01/31 08:58:45;;;;;;;28.37;15.40;;;10.20;81.20;;;;;;5066686;28;20321;-71
2021/01/31 09:01:10;;;;;;;22.57;14.97;;;10.70;79.00;;;;;;5068293;28;21013;-71
2021/01/31 09:03:41;;;;;;;25.00;15.67;;;11.10;78.40;;;;;;5082649;28;20768;-71
2021/01/31 09:06:07;;;;;;;24.03;15.90;;;11.30;75.80;;;;;;5088081;28;20230;-71
2021/01/31 09:08:33;;;;;;;23.83;15.35;;;11.30;76.10;;;;;;5079867;28;20194;-71
2021/01/31 09:11:06;;;;;;;23.08;14.63;;;11.20;74.80;;;;;;5077796;28;20185;-71
2021/01/31 09:13:34;;;;;;;23.02;14.75;;;11.00;74.40;;;;;;5074491;28;20182;-71
2021/01/31 09:16:22;;;;;;;22.92;14.50;;;11.00;75.60;;;;;;5111165;27;20194;-71
2021/01/31 09:19:04;;;;;;;20.20;13.50;;;11.00;77.00;;;;;;5067937;28;20175;-71
2021/01/31 09:21:33;;;;;;;25.33;14.40;;;11.00;76.90;;;;;;5058140;28;20201;-72
2021/01/31 09:24:01;;;;;;;21.00;13.90;;;11.00;76.40;;;;;;5070261;28;20193;-73
2021/01/31 09:26:28;;;;;;;22.38;14.75;;;11.00;75.10;;;;;;5065977;28;20222;-73
2021/01/31 09:28:56;;;;;;;28.48;15.82;;;10.80;74.30;;;;;;5070144;28;20183;-72
2021/01/31 09:31:24;;;;;;;20.50;14.25;;;10.60;75.90;;;;;;5067414;28;20206;-71
2021/01/31 09:33:53;;;;;;;25.55;14.45;;;10.40;77.10;;;;;;5065716;28;20175;-76
2021/01/31 09:36:25;;;;;;;20.08;13.27;;;10.20;74.10;;;;;;5078632;28;20171;-74
2021/01/31 09:38:53;;;;;;;23.05;14.43;;;10.00;76.70;;;;;;5071448;28;20300;-72
2021/01/31 09:41:22;;;;;;;24.75;15.02;;;9.90;77.20;;;;;;5083770;28;20190;-73
2021/01/31 09:43:54;;;;;;;27.08;16.73;;;9.80;77.30;;;;;;5069989;28;20197;-74
2021/01/31 09:46:24;;;;;;;31.45;19.08;;;9.70;77.60;;;;;;5076812;28;20180;-76
2021/01/31 09:49:16;;;;;;;32.50;19.77;;;9.60;78.50;;;;;;5071851;28;20175;-77
2021/01/31 09:51:42;;;;;;;34.97;19.50;;;9.50;78.10;;;;;;5065988;28;20276;-74
2021/01/31 09:54:20;;;;;;;31.65;18.02;;;9.50;78.30;;;;;;5069735;28;20172;-83
2021/01/31 09:56:57;;;;;;;27.25;15.70;;;9.50;79.20;;;;;;5074682;28;20179;-73
2021/01/31 09:59:24;;;;;;;24.55;15.55;;;9.50;78.90;;;;;;5066958;28;20175;-72
2021/01/31 10:01:52;;;;;;;27.00;16.45;;;9.40;77.40;;;;;;5073881;28;20186;-79
2021/01/31 10:04:25;;;;;;;30.03;17.03;;;9.40;77.80;;;;;;5073832;28;20679;-83
2021/01/31 10:07:14;;;;;;;22.77;15.05;;;9.50;78.00;;;;;;5062145;28;20202;-75
2021/01/31 10:09:43;;;;;;;23.60;15.50;;;9.50;77.60;;;;;;5064717;28;20224;-74
2021/01/31 10:12:24;;;;;;;25.00;15.15;;;9.50;78.10;;;;;;5066488;28;20581;-77
2021/01/31 10:14:53;;;;;;;20.35;12.88;;;9.50;77.00;;;;;;5067855;28;20175;-75
2021/01/31 10:17:28;;;;;;;24.15;14.93;;;9.40;76.50;;;;;;5070481;28;20171;-73
2021/01/31 10:20:28;;;;;;;24.52;15.13;;;9.40;77.30;;;;;;5057162;28;20246;-74
2021/01/31 10:23:09;;;;;;;24.17;14.90;;;9.40;77.00;;;;;;5078027;28;20193;-74
2021/01/31 10:25:36;;;;;;;26.85;16.30;;;9.40;77.20;;;;;;5049398;28;20619;-73
2021/01/31 10:28:05;;;;;;;27.73;17.60;;;9.50;77.80;;;;;;5066379;28;20186;-74
2021/01/31 10:30:44;;;;;;;29.95;17.35;;;9.50;76.70;;;;;;5065692;28;20241;-74
2021/01/31 10:33:39;;;;;;;27.05;17.15;;;9.60;76.40;;;;;;5081244;28;20285;-74
2021/01/31 10:36:26;;;;;;;26.83;17.15;;;9.60;75.90;;;;;;5068931;28;20175;-75
2021/01/31 10:38:58;;;;;;;32.78;18.38;;;9.60;76.80;;;;;;5067579;28;20276;-75
2021/01/31 10:41:24;;;;;;;31.60;18.42;;;9.60;76.80;;;;;;5081169;28;20203;-74
2021/01/31 10:43:54;;;;;;;29.25;18.15;;;9.60;76.30;;;;;;5068846;28;20207;-74
2021/01/31 10:46:20;;;;;;;30.13;19.37;;;9.60;76.60;;;;;;5056038;28;20175;-75
2021/01/31 10:48:46;;;;;;;30.80;19.23;;;9.60;76.70;;;;;;5064590;28;20878;-75
2021/01/31 10:51:11;;;;;;;31.38;19.02;;;9.60;75.80;;;;;;5081854;28;20186;-75
2021/01/31 10:53:37;;;;;;;39.25;19.25;;;9.60;75.70;;;;;;5070616;28;20264;-75
2021/01/31 10:56:05;;;;;;;30.38;17.75;;;9.50;75.50;;;;;;5063295;28;20187;-75
2021/01/31 10:58:31;;;;;;;35.05;17.10;;;9.50;76.90;;;;;;5063783;28;20605;-75
2021/01/31 11:00:57;;;;;;;29.15;17.52;;;9.50;77.30;;;;;;5079479;28;20221;-75
2021/01/31 11:03:23;;;;;;;32.42;18.50;;;9.60;77.30;;;;;;5068158;28;20187;-75
2021/01/31 11:05:49;;;;;;;33.47;18.58;;;9.70;77.30;;;;;;5078479;28;20191;-75
2021/01/31 11:08:14;;;;;;;34.50;22.75;;;9.80;77.00;;;;;;5065217;28;20179;-74
2021/01/31 11:10:41;;;;;;;40.65;24.63;;;9.80;76.30;;;;;;5064810;28;20601;-74
2021/01/31 11:13:07;;;;;;;40.13;22.53;;;9.80;75.70;;;;;;5069642;28;20281;-74
2021/01/31 11:15:33;;;;;;;38.60;23.45;;;9.80;76.30;;;;;;5067673;28;20244;-76
2021/01/31 11:17:59;;;;;;;39.45;22.08;;;9.80;76.30;;;;;;5082115;28;20178;-75
2021/01/31 11:20:24;;;;;;;38.08;22.45;;;9.90;77.40;;;;;;5075601;28;20182;-75
2021/01/31 11:22:50;;;;;;;37.80;22.77;;;10.00;77.40;;;;;;5069803;28;20274;-75
2021/01/31 11:25:16;;;;;;;38.95;22.05;;;10.10;76.80;;;;;;5080380;28;20186;-74
2021/01/31 11:27:42;;;;;;;38.47;21.77;;;10.20;76.00;;;;;;5064502;28;20628;-71
2021/01/31 11:30:08;;;;;;;41.83;23.30;;;10.30;76.30;;;;;;5064630;28;20240;-72
2021/01/31 11:32:34;;;;;;;32.55;19.88;;;10.50;76.20;;;;;;5077405;28;20285;-71
2021/01/31 11:35:00;;;;;;;41.78;21.48;;;10.70;75.30;;;;;;5084209;28;20254;-76
2021/01/31 11:37:25;;;;;;;34.53;20.02;;;10.80;74.50;;;;;;5068765;28;20194;-74
2021/01/31 11:39:51;;;;;;;33.08;20.55;;;11.00;74.60;;;;;;5077836;28;20187;-74
2021/01/31 11:42:17;;;;;;;32.90;20.60;;;11.20;74.40;;;;;;5074817;28;20202;-71
2021/01/31 11:44:43;;;;;;;33.78;20.15;;;11.40;73.60;;;;;;5075103;28;20204;-73
2021/01/31 11:47:09;;;;;;;30.25;19.15;;;11.50;73.50;;;;;;5079814;28;20178;-73
2021/01/31 11:49:34;;;;;;;30.55;18.70;;;11.60;74.10;;;;;;5073575;28;20185;-71
2021/01/31 11:52:00;;;;;;;32.85;20.35;;;11.60;73.10;;;;;;5081082;28;20592;-72
2021/01/31 11:54:26;;;;;;;34.53;20.00;;;11.70;71.30;;;;;;5075607;28;20215;-73
2021/01/31 11:56:52;;;;;;;36.22;20.27;;;11.60;72.50;;;;;;5077025;28;20217;-73
2021/01/31 11:59:18;;;;;;;33.55;19.65;;;11.60;73.00;;;;;;5068914;28;20187;-74
2021/01/31 12:01:44;;;;;;;33.75;19.70;;;11.50;71.60;;;;;;5067668;28;20185;-76
2021/01/31 12:04:09;;;;;;;30.17;17.90;;;11.40;71.80;;;;;;5069384;28;20198;-77
2021/01/31 12:06:35;;;;;;;32.58;18.25;;;11.40;72.30;;;;;;5068431;28;20187;-75
2021/01/31 12:09:02;;;;;;;27.55;17.25;;;11.20;71.90;;;;;;5068953;28;20183;-76
2021/01/31 12:11:28;;;;;;;27.10;17.42;;;11.20;72.40;;;;;;5067766;28;20203;-77
2021/01/31 12:13:56;;;;;;;30.50;18.08;;;11.20;72.90;;;;;;5067908;28;20282;-74
2021/01/31 12:16:22;;;;;;;34.35;17.40;;;11.10;72.70;;;;;;5067952;28;20171;-75
2021/01/31 12:18:47;;;;;;;32.60;18.40;;;11.20;72.30;;;;;;5068898;28;20265;-74
2021/01/31 12:21:13;;;;;;;32.15;18.67;;;11.20;71.90;;;;;;5068137;28;20662;-74
2021/01/31 12:23:39;;;;;;;35.63;17.23;;;11.20;72.60;;;;;;5066246;28;20178;-76
2021/01/31 12:26:05;;;;;;;30.65;17.42;;;11.20;72.60;;;;;;5068002;28;20182;-76
2021/01/31 12:28:30;;;;;;;32.25;18.60;;;11.20;72.30;;;;;;5066315;28;20198;-75
2021/01/31 12:30:56;;;;;;;27.40;17.63;;;11.30;73.40;;;;;;5066257;28;20183;-76
2021/01/31 12:33:22;;;;;;;29.75;18.45;;;11.40;73.40;;;;;;5066044;28;20194;-76
2021/01/31 12:35:47;;;;;;;28.17;17.67;;;11.40;71.70;;;;;;5067304;28;20270;-76
2021/01/31 12:38:13;;;;;;;30.25;18.20;;;11.40;71.80;;;;;;5066299;28;20675;-76
2021/01/31 12:40:39;;;;;;;33.70;19.27;;;11.40;72.40;;;;;;5067805;28;20178;-77
2021/01/31 12:43:05;;;;;;;31.70;20.33;;;11.40;72.70;;;;;;5068269;28;20666;-74
2021/01/31 12:45:30;;;;;;;43.25;23.73;;;11.40;72.50;;;;;;5068176;28;20175;-75
2021/01/31 12:47:56;;;;;;;38.42;23.75;;;11.40;72.10;;;;;;5068377;28;20178;-75
2021/01/31 12:50:28;;;;;;;42.38;24.23;;;11.30;72.40;;;;;;5068013;28;20185;-75
2021/01/31 12:52:53;;;;;;;38.28;23.75;;;11.20;72.50;;;;;;5067783;28;20255;-75
2021/01/31 12:55:19;;;;;;;36.58;23.00;;;11.20;73.80;;;;;;5068645;28;20585;-74
2021/01/31 12:57:45;;;;;;;53.65;27.95;;;11.20;74.00;;;;;;5067770;28;20197;-76
2021/01/31 13:00:14;;;;;;;44.05;25.92;;;11.30;74.20;;;;;;5065808;28;20266;-76
2021/01/31 13:02:40;;;;;;;53.15;27.98;;;11.30;74.00;;;;;;5067578;28;20190;-77
2021/01/31 13:05:08;;;;;;;54.38;30.05;;;11.30;71.70;;;;;;5067471;28;20240;-76